Time;durP1;ratioP1;P1;durP2;ratioP2;P2;SDS_P1;SDS_P2;PMS_P1;PMS_P2;Temp;Humidity;BMP_temperature;BMP_pressure;BME280_temperature;BME280_humidity;BME280_pressure;Samples;Min_cycle;Max_cycle;Signal;HPM_P1;HPM_P2
2021/04/26 00:00:24;;;;;;;9.20;3.23;;;6.90;1.00;;;;;;5080566;28;20183;-82
2021/04/26 00:02:50;;;;;;;6.97;2.77;;;6.90;1.00;;;;;;5078435;28;20168;-80
2021/04/26 00:05:54;;;;;;;9.57;3.77;;;6.80;1.00;;;;;;5088391;28;20700;-84
2021/04/26 00:08:26;;;;;;;7.37;3.57;;;6.60;1.00;;;;;;5078280;28;20164;-83
2021/04/26 00:10:51;;;;;;;6.23;2.37;;;6.70;1.00;;;;;;5086547;28;20225;-82
2021/04/26 00:13:17;;;;;;;11.60;3.10;;;6.80;1.00;;;;;;5075373;28;20695;-84
2021/04/26 00:15:46;;;;;;;6.37;3.10;;;6.80;1.00;;;;;;5089269;28;20513;-84
2021/04/26 00:18:16;;;;;;;6.87;3.40;;;6.70;1.00;;;;;;5085421;28;20276;-84
2021/04/26 00:20:42;;;;;;;6.33;2.87;;;6.80;1.00;;;;;;5083408;28;20656;-82
2021/04/26 00:23:08;;;;;;;6.30;2.70;;;6.70;1.00;;;;;;5093307;28;20167;-83
2021/04/26 00:25:34;;;;;;;7.60;2.63;;;6.70;1.00;;;;;;5080356;28;20211;-78
2021/04/26 00:28:00;;;;;;;8.93;3.00;;;6.70;1.00;;;;;;5089208;28;20666;-82
2021/04/26 00:30:27;;;;;;;7.67;3.03;;;6.70;1.00;;;;;;5086988;28;20224;-80
2021/04/26 00:32:53;;;;;;;6.47;3.10;;;6.70;1.00;;;;;;5081813;28;20813;-79
2021/04/26 00:35:19;;;;;;;9.97;3.50;;;6.70;1.00;;;;;;5091190;28;20583;-82
2021/04/26 00:37:47;;;;;;;8.23;3.50;;;6.60;1.00;;;;;;5081327;28;20160;-81
2021/04/26 00:40:13;;;;;;;10.13;3.47;;;6.60;1.00;;;;;;5087209;28;20195;-78
2021/04/26 00:42:39;;;;;;;8.03;3.10;;;6.50;1.00;;;;;;5088418;28;20172;-81
2021/04/26 00:45:14;;;;;;;5.60;2.63;;;6.50;1.00;;;;;;5076713;28;20187;-82
2021/04/26 00:47:42;;;;;;;6.33;3.00;;;6.50;1.00;;;;;;5064673;28;20171;-80
2021/04/26 00:50:18;;;;;;;7.57;3.53;;;6.50;1.00;;;;;;5087668;28;20179;-78
2021/04/26 00:52:44;;;;;;;8.60;3.87;;;6.40;1.00;;;;;;5089107;28;20183;-81
2021/04/26 00:55:11;;;;;;;6.93;3.33;;;6.40;1.00;;;;;;5077591;28;20215;-81
2021/04/26 00:57:37;;;;;;;8.50;3.37;;;6.50;1.00;;;;;;5091565;28;20183;-81
2021/04/26 01:00:07;;;;;;;10.77;3.77;;;6.40;1.00;;;;;;5081735;28;20180;-81
2021/04/26 01:02:33;;;;;;;8.00;3.43;;;6.40;1.00;;;;;;5083538;28;20181;-79
2021/04/26 01:05:00;;;;;;;7.83;3.10;;;6.30;1.00;;;;;;5089903;28;20266;-82
2021/04/26 01:07:28;;;;;;;7.83;3.00;;;6.40;1.00;;;;;;5078880;28;20196;-82
2021/04/26 01:09:54;;;;;;;9.97;3.33;;;6.30;1.00;;;;;;5084591;28;20184;-82
2021/04/26 01:12:35;;;;;;;11.83;3.13;;;6.30;1.00;;;;;;5085596;28;20183;-78
2021/04/26 01:15:16;;;;;;;5.30;2.83;;;6.30;1.00;;;;;;5089657;28;20214;-80
2021/04/26 01:17:48;;;;;;;9.43;3.50;;;6.20;1.00;;;;;;5063509;28;20168;-78
2021/04/26 01:20:32;;;;;;;6.50;2.70;;;6.10;1.00;;;;;;5086170;28;20203;-83
2021/04/26 01:23:22;;;;;;;9.03;3.70;;;6.10;1.00;;;;;;5090207;28;20167;-77
2021/04/26 01:25:50;;;;;;;8.23;3.70;;;6.10;1.00;;;;;;5064512;28;20652;-81
2021/04/26 01:28:23;;;;;;;9.27;3.30;;;6.00;1.00;;;;;;5085754;28;20628;-82
2021/04/26 01:31:07;;;;;;;11.20;3.50;;;6.00;1.00;;;;;;5087916;28;20251;-82
2021/04/26 01:33:38;;;;;;;9.40;3.40;;;6.00;1.00;;;;;;5061990;28;20219;-81
2021/04/26 01:36:06;;;;;;;7.20;3.27;;;6.00;1.00;;;;;;5087491;28;20172;-79
2021/04/26 01:38:40;;;;;;;9.57;3.27;;;6.00;1.10;;;;;;5086442;28;20180;-81
2021/04/26 01:41:07;;;;;;;6.53;3.70;;;5.90;4.50;;;;;;5078288;28;20229;-76
2021/04/26 01:43:35;;;;;;;6.20;2.97;;;5.90;6.90;;;;;;5064689;28;20175;-81
2021/04/26 01:46:06;;;;;;;8.83;3.90;;;6.00;5.80;;;;;;5086426;28;20227;-79
2021/04/26 01:48:39;;;;;;;11.80;3.70;;;6.00;6.60;;;;;;5085368;28;20183;-83
2021/04/26 01:51:06;;;;;;;9.20;3.50;;;6.00;5.70;;;;;;5077453;28;20528;-81
2021/04/26 01:53:32;;;;;;;9.87;3.47;;;6.00;5.30;;;;;;5085914;28;20359;-81
2021/04/26 01:56:00;;;;;;;8.03;3.63;;;5.90;6.60;;;;;;5086789;28;20188;-82
2021/04/26 01:58:26;;;;;;;9.90;3.50;;;5.90;7.70;;;;;;5085564;28;20505;-80
2021/04/26 02:00:53;;;;;;;5.87;3.07;;;5.80;10.00;;;;;;5080239;28;20180;-80
2021/04/26 02:03:25;;;;;;;7.73;3.40;;;5.70;12.10;;;;;;5091202;28;20183;-80
2021/04/26 02:05:53;;;;;;;6.97;3.13;;;5.70;14.70;;;;;;5080533;28;20179;-79
2021/04/26 02:08:19;;;;;;;8.33;3.40;;;5.70;15.10;;;;;;5084562;28;20187;-82
2021/04/26 02:10:45;;;;;;;8.17;3.87;;;5.70;12.90;;;;;;5074563;28;20176;-80
2021/04/26 02:13:18;;;;;;;8.17;3.77;;;5.70;18.00;;;;;;5090553;28;20172;-82
2021/04/26 02:15:45;;;;;;;10.17;3.27;;;5.70;17.30;;;;;;5079486;28;20509;-77
2021/04/26 02:18:12;;;;;;;8.80;3.60;;;5.70;16.40;;;;;;5085361;28;20176;-83
2021/04/26 02:20:38;;;;;;;10.07;4.40;;;5.70;16.10;;;;;;5086749;28;20204;-83
2021/04/26 02:23:04;;;;;;;9.10;3.90;;;5.60;17.40;;;;;;5077805;28;20300;-80
2021/04/26 02:25:30;;;;;;;9.93;3.93;;;5.60;18.00;;;;;;5090848;28;20203;-83
2021/04/26 02:27:56;;;;;;;9.53;3.80;;;5.60;18.60;;;;;;5073321;28;20165;-82
2021/04/26 02:30:22;;;;;;;8.63;3.27;;;5.70;18.60;;;;;;5084406;28;20179;-83
2021/04/26 02:33:11;;;;;;;7.80;3.13;;;5.60;14.50;;;;;;5079824;28;20636;-82
2021/04/26 02:35:43;;;;;;;9.63;3.50;;;5.60;19.40;;;;;;5062127;28;20171;-79
2021/04/26 02:38:13;;;;;;;10.90;3.33;;;5.50;17.30;;;;;;5084455;28;20168;-82
2021/04/26 02:41:06;;;;;;;8.37;3.23;;;5.50;16.60;;;;;;5086560;28;20234;-81
2021/04/26 02:43:40;;;;;;;6.50;2.93;;;5.40;17.80;;;;;;5076518;28;20215;-79
2021/04/26 02:46:07;;;;;;;9.80;4.20;;;5.40;21.00;;;;;;5085570;28;20648;-81
2021/04/26 02:48:33;;;;;;;9.43;4.50;;;5.40;21.60;;;;;;5085429;28;20279;-81
2021/04/26 02:51:00;;;;;;;9.77;3.63;;;5.40;22.10;;;;;;5077985;28;20274;-80
2021/04/26 02:53:29;;;;;;;10.37;4.47;;;5.40;21.20;;;;;;5089995;28;20195;-82
2021/04/26 02:56:00;;;;;;;9.43;4.07;;;5.30;22.20;;;;;;5079995;28;20180;-82
2021/04/26 02:58:28;;;;;;;8.07;4.70;;;5.40;22.90;;;;;;5082050;28;20647;-82
2021/04/26 03:00:53;;;;;;;7.77;3.17;;;5.30;22.40;;;;;;5088356;28;20211;-80
2021/04/26 03:03:20;;;;;;;12.07;4.27;;;5.30;22.60;;;;;;5076496;28;20204;-81
2021/04/26 03:05:49;;;;;;;8.67;3.70;;;5.30;24.90;;;;;;5087341;28;20172;-83
2021/04/26 03:08:16;;;;;;;9.50;4.53;;;5.30;27.10;;;;;;5078480;28;20168;-83
2021/04/26 03:10:42;;;;;;;7.03;3.53;;;5.30;25.40;;;;;;5085139;28;20202;-83
2021/04/26 03:13:08;;;;;;;7.17;3.20;;;5.20;23.60;;;;;;5075160;28;20637;-82
2021/04/26 03:15:33;;;;;;;7.30;4.10;;;5.20;26.20;;;;;;5059985;28;20241;-79
2021/04/26 03:18:00;;;;;;;12.77;3.77;;;5.20;26.10;;;;;;5086159;28;20528;-83
2021/04/26 03:20:26;;;;;;;7.30;3.30;;;5.10;28.50;;;;;;5083491;28;20192;-80
2021/04/26 03:22:53;;;;;;;6.80;3.57;;;5.10;29.70;;;;;;5078581;28;20175;-82
2021/04/26 03:25:23;;;;;;;12.27;4.80;;;5.10;29.40;;;;;;5088212;28;20544;-83
2021/04/26 03:27:52;;;;;;;12.27;4.50;;;5.10;30.00;;;;;;5078581;28;20526;-78
2021/04/26 03:30:21;;;;;;;11.17;4.80;;;5.10;32.70;;;;;;5081617;28;20318;-80
2021/04/26 03:32:48;;;;;;;11.03;4.00;;;5.10;30.60;;;;;;5086616;28;20171;-83
2021/04/26 03:35:16;;;;;;;8.83;3.53;;;5.10;31.70;;;;;;5075856;28;20207;-81
2021/04/26 03:37:44;;;;;;;10.33;3.80;;;5.10;29.10;;;;;;5088551;28;20168;-82
2021/04/26 03:40:10;;;;;;;8.50;3.97;;;5.10;29.10;;;;;;5081372;28;20663;-81
2021/04/26 03:42:36;;;;;;;11.30;4.00;;;5.20;29.00;;;;;;5080969;28;20180;-82
2021/04/26 03:45:02;;;;;;;8.50;3.80;;;5.10;27.00;;;;;;5088897;28;20183;-80
2021/04/26 03:47:28;;;;;;;9.83;4.43;;;5.10;30.10;;;;;;5076099;28;20258;-79
2021/04/26 03:49:53;;;;;;;7.37;3.53;;;5.00;30.50;;;;;;5085971;28;20271;-81
2021/04/26 03:52:19;;;;;;;6.47;3.27;;;5.00;30.00;;;;;;5081290;28;20538;-82
2021/04/26 03:54:44;;;;;;;8.90;3.80;;;4.90;28.60;;;;;;5078837;28;20269;-80
2021/04/26 03:57:10;;;;;;;11.17;4.27;;;4.90;32.00;;;;;;5089195;28;20688;-80
2021/04/26 03:59:36;;;;;;;9.70;4.17;;;4.90;33.00;;;;;;5076286;28;20168;-82
2021/04/26 04:02:02;;;;;;;13.13;4.07;;;4.80;34.40;;;;;;5085081;28;20207;-83
2021/04/26 04:04:27;;;;;;;10.03;3.90;;;4.80;36.40;;;;;;5082872;28;20182;-82
2021/04/26 04:06:53;;;;;;;14.20;4.00;;;4.70;35.90;;;;;;5078041;28;20180;-79
2021/04/26 04:09:18;;;;;;;8.57;3.97;;;4.70;38.60;;;;;;5079573;28;20225;-81
2021/04/26 04:11:44;;;;;;;5.67;3.27;;;4.70;40.10;;;;;;5072922;28;20172;-82
2021/04/26 04:14:11;;;;;;;6.17;3.30;;;4.70;40.60;;;;;;5080660;28;20333;-79
2021/04/26 04:16:36;;;;;;;8.73;3.40;;;4.60;40.00;;;;;;5078634;28;20255;-82
2021/04/26 04:19:03;;;;;;;7.87;3.77;;;4.60;40.80;;;;;;5088118;28;20579;-83
2021/04/26 04:21:28;;;;;;;11.57;4.77;;;4.60;41.60;;;;;;5075401;28;20336;-81
2021/04/26 04:23:54;;;;;;;5.60;3.70;;;4.60;44.60;;;;;;5085664;28;20210;-81
2021/04/26 04:26:20;;;;;;;8.73;3.83;;;4.60;43.20;;;;;;5081933;28;20182;-82
2021/04/26 04:28:46;;;;;;;10.07;3.90;;;4.50;41.00;;;;;;5078011;28;20246;-80
2021/04/26 04:31:12;;;;;;;10.23;3.53;;;4.50;42.90;;;;;;5088614;28;20183;-82
2021/04/26 04:33:38;;;;;;;9.97;4.67;;;4.60;43.40;;;;;;5076115;28;20219;-80
2021/04/26 04:36:04;;;;;;;11.07;4.20;;;4.60;42.10;;;;;;5084485;28;20219;-81
2021/04/26 04:38:29;;;;;;;6.90;3.70;;;4.60;43.00;;;;;;5086973;28;20172;-79
2021/04/26 04:40:56;;;;;;;15.17;5.03;;;4.50;44.40;;;;;;5082717;28;20687;-78
2021/04/26 04:43:23;;;;;;;10.27;4.20;;;4.60;43.80;;;;;;5089323;28;20267;-82
2021/04/26 04:45:50;;;;;;;8.03;4.00;;;4.60;39.00;;;;;;5081266;28;20202;-80
2021/04/26 04:48:15;;;;;;;9.30;4.23;;;4.70;39.00;;;;;;5085050;28;20267;-82
2021/04/26 04:50:41;;;;;;;8.70;3.83;;;4.70;37.60;;;;;;5089032;28;20214;-80
2021/04/26 04:53:07;;;;;;;7.70;3.97;;;4.70;36.30;;;;;;5076574;28;20632;-83
2021/04/26 04:55:33;;;;;;;11.30;3.93;;;4.80;34.60;;;;;;5088520;28;20264;-81
2021/04/26 04:57:58;;;;;;;9.50;4.23;;;4.70;32.90;;;;;;5079094;28;20174;-78
2021/04/26 05:00:24;;;;;;;10.70;4.33;;;4.80;35.40;;;;;;5081447;28;20647;-83
2021/04/26 05:02:50;;;;;;;11.10;4.10;;;4.70;29.50;;;;;;5088780;28;20183;-83
2021/04/26 05:05:15;;;;;;;14.93;5.50;;;4.80;28.90;;;;;;5078802;28;20661;-82
2021/04/26 05:07:41;;;;;;;10.63;5.80;;;4.80;28.20;;;;;;5091210;28;20629;-82
2021/04/26 05:10:08;;;;;;;12.33;4.87;;;4.80;27.80;;;;;;5075322;28;20504;-81
2021/04/26 05:12:34;;;;;;;12.03;4.20;;;4.80;26.70;;;;;;5087583;28;20217;-81
2021/04/26 05:15:00;;;;;;;9.03;4.40;;;4.70;25.10;;;;;;5079674;28;20722;-80
2021/04/26 05:17:26;;;;;;;10.33;4.87;;;4.70;27.10;;;;;;5092388;28;20259;-82
2021/04/26 05:19:54;;;;;;;10.63;4.40;;;4.70;30.80;;;;;;5080308;28;20240;-81
2021/04/26 05:22:19;;;;;;;10.50;4.47;;;4.70;31.00;;;;;;5084989;28;20523;-81
2021/04/26 05:24:45;;;;;;;8.40;4.37;;;4.80;27.60;;;;;;5075069;28;20230;-82
2021/04/26 05:27:11;;;;;;;12.93;4.77;;;4.80;26.70;;;;;;5090443;28;20175;-81
2021/04/26 05:29:37;;;;;;;8.93;3.70;;;4.80;23.10;;;;;;5079719;28;20218;-78
2021/04/26 05:32:02;;;;;;;15.33;3.93;;;4.80;17.30;;;;;;5087921;28;20186;-82
2021/04/26 05:34:28;;;;;;;9.37;4.13;;;4.90;19.20;;;;;;5086561;28;20234;-81
2021/04/26 05:36:53;;;;;;;11.87;4.43;;;4.90;14.80;;;;;;5080246;28;20244;-82
2021/04/26 05:39:19;;;;;;;10.97;4.53;;;4.90;13.80;;;;;;5091623;28;20747;-82
2021/04/26 05:41:45;;;;;;;7.30;4.27;;;4.90;8.70;;;;;;5079873;28;20633;-80
2021/04/26 05:44:11;;;;;;;9.33;3.77;;;5.00;9.90;;;;;;5083180;28;20226;-83
2021/04/26 05:46:37;;;;;;;10.63;4.13;;;5.00;5.10;;;;;;5085924;28;20597;-84
2021/04/26 05:49:03;;;;;;;17.37;5.73;;;5.10;4.90;;;;;;5079094;28;20223;-85
2021/04/26 05:51:28;;;;;;;13.90;5.10;;;5.20;5.10;;;;;;5088731;28;20532;-81
2021/04/26 05:53:54;;;;;;;9.67;3.93;;;5.30;3.10;;;;;;5067037;28;20225;-81
2021/04/26 05:56:20;;;;;;;13.20;4.80;;;5.30;1.00;;;;;;5084554;28;20243;-84
2021/04/26 05:58:51;;;;;;;11.33;4.90;;;5.30;1.00;;;;;;5086128;28;20183;-83
2021/04/26 06:01:17;;;;;;;10.67;4.33;;;5.30;1.00;;;;;;5076288;28;20179;-81
2021/04/26 06:03:43;;;;;;;9.83;4.57;;;5.20;1.00;;;;;;5089195;28;20168;-82
2021/04/26 06:06:09;;;;;;;10.33;4.27;;;5.20;1.00;;;;;;5082611;28;20178;-80
2021/04/26 06:08:35;;;;;;;8.60;3.93;;;5.10;1.00;;;;;;5081836;28;20176;-79
2021/04/26 06:11:01;;;;;;;9.43;4.90;;;5.10;1.00;;;;;;5073608;28;20260;-78
2021/04/26 06:13:26;;;;;;;9.23;4.10;;;5.20;1.00;;;;;;5089433;28;20262;-78
2021/04/26 06:15:52;;;;;;;10.03;4.13;;;5.30;1.00;;;;;;5080077;28;20662;-82
2021/04/26 06:18:22;;;;;;;8.37;4.40;;;5.30;1.00;;;;;;5084140;28;20237;-85
2021/04/26 06:20:51;;;;;;;8.13;4.17;;;5.30;1.00;;;;;;5088151;28;20577;-81
2021/04/26 06:23:17;;;;;;;8.00;4.07;;;5.40;1.00;;;;;;5077256;28;20169;-81
2021/04/26 06:25:43;;;;;;;11.87;4.70;;;5.40;1.00;;;;;;5090217;28;20717;-85
2021/04/26 06:28:10;;;;;;;10.10;4.03;;;5.40;1.00;;;;;;5082828;28;20171;-82
2021/04/26 06:30:38;;;;;;;7.77;4.33;;;5.60;1.00;;;;;;5081341;28;20609;-82
2021/04/26 06:33:04;;;;;;;14.13;4.67;;;5.70;1.00;;;;;;5073772;28;20225;-81
2021/04/26 06:35:31;;;;;;;9.77;4.57;;;5.70;1.00;;;;;;5088807;28;20503;-81
2021/04/26 06:37:57;;;;;;;11.03;4.27;;;5.80;1.00;;;;;;5078374;28;20172;-80
2021/04/26 06:40:24;;;;;;;8.10;4.47;;;5.90;1.00;;;;;;5082160;28;20291;-82
2021/04/26 06:42:50;;;;;;;8.00;4.63;;;6.10;1.00;;;;;;5085160;28;20289;-83
2021/04/26 06:45:21;;;;;;;10.00;5.03;;;6.00;1.00;;;;;;5074725;28;20184;-81
2021/04/26 06:47:48;;;;;;;10.23;4.00;;;6.00;1.00;;;;;;5088341;28;20176;-82
2021/04/26 06:50:14;;;;;;;8.17;4.67;;;6.10;1.00;;;;;;5082268;28;20180;-80
2021/04/26 06:52:39;;;;;;;7.17;4.30;;;6.20;1.00;;;;;;5079301;28;20176;-80
2021/04/26 06:55:06;;;;;;;9.27;4.47;;;6.30;1.00;;;;;;5089149;28;20302;-80
2021/04/26 06:57:32;;;;;;;10.87;5.53;;;6.40;1.00;;;;;;5076324;28;20242;-82
2021/04/26 06:59:57;;;;;;;10.17;5.37;;;6.60;1.00;;;;;;5086366;28;20675;-79
2021/04/26 07:02:23;;;;;;;14.57;5.30;;;6.70;1.00;;;;;;5082214;28;20177;-80
2021/04/26 07:04:48;;;;;;;11.07;4.60;;;6.80;1.00;;;;;;5078598;28;20180;-83
2021/04/26 07:07:14;;;;;;;11.43;4.73;;;7.00;1.00;;;;;;5089781;28;20176;-83
2021/04/26 07:09:40;;;;;;;10.73;5.70;;;7.00;1.00;;;;;;5072854;28;20179;-80
2021/04/26 07:12:06;;;;;;;13.37;5.50;;;7.00;1.00;;;;;;5079800;28;20167;-80
2021/04/26 07:14:32;;;;;;;9.40;4.73;;;7.10;1.00;;;;;;5080578;28;20240;-85
2021/04/26 07:16:57;;;;;;;11.90;4.80;;;7.10;1.00;;;;;;5087757;28;20178;-83
2021/04/26 07:19:23;;;;;;;8.37;5.23;;;7.00;1.00;;;;;;5075580;28;20562;-84
2021/04/26 07:21:50;;;;;;;11.93;5.07;;;7.10;1.00;;;;;;5086936;28;20173;-84
2021/04/26 07:24:16;;;;;;;12.97;4.43;;;7.20;1.00;;;;;;5081637;28;20175;-84
2021/04/26 07:26:41;;;;;;;9.70;4.83;;;7.30;1.00;;;;;;5079389;28;20947;-83
2021/04/26 07:29:07;;;;;;;13.20;5.13;;;7.40;1.00;;;;;;5083681;28;20180;-81
2021/04/26 07:31:33;;;;;;;12.97;5.00;;;7.50;1.00;;;;;;5075429;28;20176;-84
2021/04/26 07:33:58;;;;;;;12.47;5.00;;;7.50;1.00;;;;;;5085240;28;20208;-81
2021/04/26 07:36:24;;;;;;;9.90;5.30;;;7.60;1.00;;;;;;5083139;28;20594;-83
2021/04/26 07:38:50;;;;;;;12.70;5.43;;;7.50;1.00;;;;;;5076819;28;20175;-81
2021/04/26 07:41:16;;;;;;;13.50;5.40;;;7.60;1.00;;;;;;5088348;28;20168;-77
2021/04/26 07:43:41;;;;;;;12.77;5.27;;;7.70;1.00;;;;;;5075613;28;20172;-82
2021/04/26 07:46:07;;;;;;;13.07;5.67;;;7.70;1.00;;;;;;5082326;28;20189;-82
2021/04/26 07:48:32;;;;;;;11.30;5.30;;;7.80;1.00;;;;;;5074131;28;20169;-83
2021/04/26 07:50:58;;;;;;;11.97;5.03;;;7.90;1.00;;;;;;5087475;28;20211;-84
2021/04/26 07:53:24;;;;;;;15.17;5.37;;;8.00;1.00;;;;;;5075098;28;20180;-84
2021/04/26 07:55:49;;;;;;;11.47;5.50;;;8.10;99.90;;;;;;5085811;28;20692;-82
2021/04/26 07:58:15;;;;;;;12.13;5.30;;;8.30;99.90;;;;;;5064016;28;20172;-80
2021/04/26 08:00:42;;;;;;;11.83;5.13;;;8.30;99.90;;;;;;5072624;28;20169;-84
2021/04/26 08:03:07;;;;;;;10.60;5.00;;;8.40;99.90;;;;;;5074253;28;20177;-83
2021/04/26 08:05:34;;;;;;;12.00;5.50;;;8.40;1.00;;;;;;5089652;28;20172;-83
2021/04/26 08:08:00;;;;;;;10.40;5.33;;;8.50;99.90;;;;;;5078472;28;20171;-82
2021/04/26 08:10:25;;;;;;;14.63;5.47;;;8.70;1.00;;;;;;5082685;28;20164;-83
2021/04/26 08:12:51;;;;;;;10.60;5.47;;;8.80;1.00;;;;;;5077797;28;20527;-83
2021/04/26 08:15:19;;;;;;;13.57;5.27;;;8.80;99.90;;;;;;5081582;28;20211;-84
2021/04/26 08:17:44;;;;;;;13.20;5.53;;;8.70;1.00;;;;;;5086800;28;20251;-80
2021/04/26 08:20:11;;;;;;;8.23;4.90;;;8.80;1.00;;;;;;5069990;28;20283;-80
2021/04/26 08:22:37;;;;;;;11.90;5.23;;;8.90;99.90;;;;;;5077627;28;20187;-79
2021/04/26 08:25:03;;;;;;;9.43;5.63;;;8.90;99.90;;;;;;5075365;28;20176;-85
2021/04/26 08:27:29;;;;;;;9.07;4.67;;;8.90;99.90;;;;;;5086989;28;20526;-85
2021/04/26 08:29:55;;;;;;;11.87;5.30;;;9.10;1.00;;;;;;5078766;28;20164;-83
2021/04/26 08:32:20;;;;;;;10.00;5.30;;;9.10;1.00;;;;;;5081861;28;20188;-83
2021/04/26 08:34:46;;;;;;;10.20;4.50;;;9.20;1.00;;;;;;5084493;28;20211;-84
2021/04/26 08:37:11;;;;;;;12.43;5.57;;;9.40;91.90;;;;;;5076140;28;20659;-81
2021/04/26 08:39:37;;;;;;;9.17;5.37;;;9.50;99.90;;;;;;5091331;28;20172;-82
2021/04/26 08:42:04;;;;;;;8.67;5.27;;;9.40;99.90;;;;;;5082540;28;20616;-81
2021/04/26 08:44:30;;;;;;;9.27;4.80;;;9.50;1.00;;;;;;5081383;28;20232;-84
2021/04/26 08:46:56;;;;;;;11.20;5.30;;;9.50;99.90;;;;;;5090735;28;20254;-85
2021/04/26 08:49:22;;;;;;;10.13;5.23;;;9.60;99.90;;;;;;5070781;28;20645;-82
2021/04/26 08:51:48;;;;;;;12.93;4.90;;;9.60;99.90;;;;;;5082160;28;20572;-84
2021/04/26 08:54:16;;;;;;;10.43;4.73;;;9.80;1.00;;;;;;5085820;28;20208;-83
2021/04/26 08:56:42;;;;;;;11.87;5.37;;;10.10;99.90;;;;;;5086932;28;20574;-81
2021/04/26 08:59:08;;;;;;;9.77;5.13;;;10.10;1.00;;;;;;5078153;28;20176;-80
2021/04/26 09:01:34;;;;;;;19.73;5.60;;;10.30;99.90;;;;;;5091744;28;20182;-82
2021/04/26 09:04:08;;;;;;;26.23;7.60;;;10.40;19.10;;;;;;5082319;28;20203;-81
2021/04/26 09:06:50;;;;;;;8.70;3.87;;;10.40;99.90;;;;;;5082663;28;20180;-82
2021/04/26 09:09:33;;;;;;;13.80;5.57;;;10.50;99.90;;;;;;5082049;28;20200;-85
2021/04/26 09:11:58;;;;;;;7.57;4.20;;;10.70;1.00;;;;;;5075701;28;20171;-83
2021/04/26 09:14:55;;;;;;;9.87;4.70;;;10.70;23.60;;;;;;5084026;28;20210;-85
2021/04/26 09:17:38;;;;;;;6.20;3.97;;;10.80;6.20;;;;;;5077957;28;20181;-83
2021/04/26 09:20:18;;;;;;;7.40;3.47;;;10.90;1.00;;;;;;5087463;28;20195;-83
2021/04/26 09:22:55;;;;;;;7.20;3.87;;;10.90;1.00;;;;;;5087412;28;20175;-82
2021/04/26 09:25:26;;;;;;;6.83;3.77;;;10.90;1.00;;;;;;5078293;28;20172;-83
2021/04/26 09:28:01;;;;;;;6.53;3.63;;;10.90;1.00;;;;;;5086603;28;20176;-83
2021/04/26 09:30:52;;;;;;;12.07;5.13;;;10.90;1.00;;;;;;5084279;28;20193;-81
2021/04/26 09:33:39;;;;;;;7.47;3.60;;;10.90;99.90;;;;;;5077532;28;20172;-82
2021/04/26 09:36:18;;;;;;;6.73;4.37;;;11.00;1.00;;;;;;5086612;28;20200;-82
2021/04/26 09:38:50;;;;;;;7.97;4.00;;;11.20;1.00;;;;;;5086743;28;20171;-85
2021/04/26 09:41:19;;;;;;;7.03;3.60;;;11.40;1.00;;;;;;5076317;28;20168;-84
2021/04/26 09:43:48;;;;;;;7.47;3.83;;;11.30;99.90;;;;;;5081933;28;20164;-81
2021/04/26 09:46:14;;;;;;;10.13;4.00;;;11.20;99.90;;;;;;5083886;28;20187;-82
2021/04/26 09:48:40;;;;;;;8.87;3.80;;;11.40;99.90;;;;;;5085871;28;20175;-84
2021/04/26 09:51:17;;;;;;;9.23;3.97;;;11.60;99.90;;;;;;5076633;28;20180;-84
2021/04/26 09:53:43;;;;;;;6.33;3.30;;;11.60;99.90;;;;;;5078761;28;20615;-83
2021/04/26 09:56:15;;;;;;;9.33;3.67;;;11.60;99.90;;;;;;5085975;28;20172;-82
2021/04/26 09:58:44;;;;;;;7.33;4.20;;;11.60;99.90;;;;;;5087002;28;20231;-82
2021/04/26 10:01:10;;;;;;;8.10;4.03;;;11.50;99.90;;;;;;5077381;28;20680;-81
2021/04/26 10:03:36;;;;;;;7.13;3.93;;;11.40;99.90;;;;;;5090432;28;20209;-81
2021/04/26 10:06:02;;;;;;;5.27;3.90;;;11.50;99.90;;;;;;5080348;28;20256;-82
2021/04/26 10:08:28;;;;;;;6.60;3.87;;;11.60;99.90;;;;;;5085223;28;20682;-81
2021/04/26 10:10:54;;;;;;;7.77;4.10;;;11.50;99.90;;;;;;5089953;28;20207;-81
2021/04/26 10:13:26;;;;;;;8.50;3.87;;;11.60;99.90;;;;;;5077667;28;20182;-84
2021/04/26 10:16:00;;;;;;;6.03;3.50;;;11.60;99.90;;;;;;5094286;28;20278;-81
2021/04/26 10:18:41;;;;;;;6.23;4.50;;;11.70;99.90;;;;;;5082841;28;20693;-84
2021/04/26 10:21:18;;;;;;;8.07;3.57;;;11.70;99.90;;;;;;5068123;28;20191;-84
2021/04/26 10:23:48;;;;;;;9.43;4.17;;;11.90;99.90;;;;;;5077481;28;20262;-85
2021/04/26 10:26:49;;;;;;;6.47;3.80;;;12.10;99.90;;;;;;5084412;28;20316;-83
2021/04/26 10:29:33;;;;;;;8.43;4.53;;;11.90;99.90;;;;;;5085345;28;20194;-82
2021/04/26 10:32:05;;;;;;;6.93;3.70;;;11.80;99.90;;;;;;5071821;28;20180;-83
2021/04/26 10:34:42;;;;;;;6.20;3.53;;;11.90;99.90;;;;;;5085376;28;20228;-83
2021/04/26 10:37:16;;;;;;;10.83;3.73;;;11.90;99.90;;;;;;5074039;28;20629;-82
2021/04/26 10:39:57;;;;;;;6.97;3.23;;;12.00;1.50;;;;;;5086569;28;20258;-82
2021/04/26 10:42:49;;;;;;;5.87;3.80;;;12.10;1.00;;;;;;5066737;28;20183;-81
2021/04/26 10:45:22;;;;;;;5.50;3.20;;;12.40;1.00;;;;;;5079969;28;20555;-82
2021/04/26 10:48:04;;;;;;;6.70;3.37;;;12.50;1.00;;;;;;5086459;28;20172;-81
2021/04/26 10:50:32;;;;;;;6.30;4.23;;;12.60;1.00;;;;;;5082896;28;20274;-80
2021/04/26 10:52:59;;;;;;;6.93;3.47;;;12.50;1.00;;;;;;5077302;28;20183;-83
2021/04/26 10:55:25;;;;;;;8.43;3.57;;;12.50;1.00;;;;;;5089354;28;20199;-83
2021/04/26 10:58:02;;;;;;;8.00;3.57;;;12.40;1.00;;;;;;5079047;28;20506;-83
2021/04/26 11:00:30;;;;;;;6.07;3.50;;;12.50;1.00;;;;;;5080538;28;20172;-82
2021/04/26 11:03:20;;;;;;;6.87;3.47;;;12.60;1.00;;;;;;5088485;28;20199;-83
2021/04/26 11:05:52;;;;;;;7.27;3.70;;;12.90;1.00;;;;;;5060014;28;20196;-84
2021/04/26 11:08:28;;;;;;;7.13;3.33;;;13.00;1.00;;;;;;5074959;28;20251;-82
2021/04/26 11:11:29;;;;;;;9.70;3.70;;;13.00;1.00;;;;;;5072090;28;20183;-82
2021/04/26 11:13:57;;;;;;;5.17;2.93;;;12.90;1.00;;;;;;5063572;28;20542;-83
2021/04/26 11:16:32;;;;;;;9.17;4.00;;;12.90;1.00;;;;;;5082594;28;20579;-83
2021/04/26 11:18:58;;;;;;;5.10;3.33;;;12.90;1.00;;;;;;5086247;28;20211;-80
2021/04/26 11:21:42;;;;;;;5.00;3.33;;;12.90;1.00;;;;;;5075620;28;20270;-81
2021/04/26 11:24:13;;;;;;;7.00;3.30;;;13.00;1.00;;;;;;5084177;28;20172;-80
2021/04/26 11:26:39;;;;;;;5.30;3.20;;;13.00;1.00;;;;;;5085354;28;20172;-82
2021/04/26 11:29:07;;;;;;;8.70;3.70;;;13.00;1.00;;;;;;5076038;28;20639;-81
2021/04/26 11:31:42;;;;;;;5.87;3.30;;;13.20;1.00;;;;;;5058758;28;20199;-85
2021/04/26 11:34:11;;;;;;;6.67;3.77;;;13.30;1.00;;;;;;5083606;28;20215;-82
2021/04/26 11:36:38;;;;;;;8.03;3.80;;;13.20;1.00;;;;;;5071931;28;20164;-84
2021/04/26 11:39:09;;;;;;;7.13;3.90;;;13.20;1.00;;;;;;5088388;28;20663;-85
2021/04/26 11:41:42;;;;;;;6.77;3.43;;;13.30;1.00;;;;;;5059756;28;20168;-81
2021/04/26 11:44:08;;;;;;;5.23;4.00;;;13.30;1.00;;;;;;5080771;28;20168;-82
2021/04/26 11:46:34;;;;;;;7.50;4.03;;;13.30;1.00;;;;;;5084657;28;20631;-84
2021/04/26 11:49:21;;;;;;;7.77;4.03;;;13.30;1.00;;;;;;5076654;28;20207;-84
2021/04/26 11:51:50;;;;;;;8.57;3.80;;;13.30;1.00;;;;;;5063027;28;20178;-83
2021/04/26 11:54:18;;;;;;;8.07;3.50;;;13.20;1.00;;;;;;5082950;28;20226;-82
2021/04/26 11:57:07;;;;;;;4.93;3.30;;;13.20;1.00;;;;;;5085593;28;20258;-82
2021/04/26 11:59:34;;;;;;;8.50;4.23;;;13.20;1.00;;;;;;5058903;28;20193;-84
2021/04/26 12:01:59;;;;;;;7.53;4.07;;;13.30;1.00;;;;;;5084520;28;20183;-83
2021/04/26 12:04:52;;;;;;;6.63;4.03;;;13.40;1.00;;;;;;5081380;28;20176;-84
2021/04/26 12:07:17;;;;;;;9.40;3.50;;;13.60;1.00;;;;;;5072961;28;20187;-83
2021/04/26 12:09:44;;;;;;;8.03;4.17;;;13.70;1.00;;;;;;5056751;28;20195;-84
2021/04/26 12:12:10;;;;;;;5.53;3.67;;;13.70;1.00;;;;;;5089901;28;20175;-83
2021/04/26 12:14:42;;;;;;;7.70;3.90;;;13.70;1.00;;;;;;5084072;28;20544;-82
2021/04/26 12:17:19;;;;;;;6.20;3.50;;;13.70;1.00;;;;;;5071647;28;20537;-84
2021/04/26 12:19:47;;;;;;;5.00;3.50;;;13.70;1.00;;;;;;5071894;28;20549;-81
2021/04/26 12:22:13;;;;;;;7.87;3.90;;;13.60;1.00;;;;;;5070052;28;20176;-86
2021/04/26 12:24:41;;;;;;;5.23;3.50;;;13.50;1.00;;;;;;5070578;28;20180;-85
2021/04/26 12:27:08;;;;;;;8.63;3.87;;;13.70;1.00;;;;;;5071714;28;20164;-85
2021/04/26 12:29:34;;;;;;;12.13;4.80;;;13.90;1.00;;;;;;5065227;28;20303;-84
2021/04/26 12:32:12;;;;;;;8.17;3.87;;;14.10;1.00;;;;;;5061329;28;20664;-82
2021/04/26 12:34:48;;;;;;;6.73;3.50;;;13.90;1.00;;;;;;5070279;28;20314;-85
2021/04/26 12:37:14;;;;;;;7.53;4.30;;;14.00;1.00;;;;;;5071054;28;20377;-82
2021/04/26 12:39:40;;;;;;;6.33;3.87;;;14.00;1.00;;;;;;5070570;28;20222;-83
2021/04/26 12:42:13;;;;;;;9.07;4.13;;;14.10;1.00;;;;;;5071827;28;20180;-82
2021/04/26 12:44:40;;;;;;;8.80;4.20;;;13.90;1.00;;;;;;5071365;28;20179;-84
2021/04/26 12:47:24;;;;;;;9.53;4.40;;;14.10;1.00;;;;;;5070187;28;20179;-82
2021/04/26 12:50:15;;;;;;;11.17;3.97;;;14.10;1.00;;;;;;5070568;28;20696;-81
2021/04/26 12:52:41;;;;;;;6.53;4.23;;;14.10;1.00;;;;;;5070975;28;20589;-81
2021/04/26 12:55:12;;;;;;;7.50;4.03;;;14.10;1.00;;;;;;5069915;28;20215;-82
2021/04/26 12:57:39;;;;;;;5.57;4.10;;;14.20;1.00;;;;;;5069618;28;20169;-86
2021/04/26 13:00:09;;;;;;;6.53;4.00;;;14.10;1.00;;;;;;5071330;28;20172;-83
2021/04/26 13:02:35;;;;;;;15.20;4.47;;;14.30;1.00;;;;;;5068718;28;20169;-83
2021/04/26 13:05:01;;;;;;;7.77;4.13;;;14.30;1.00;;;;;;5060691;28;20593;-85